Time;durP1;ratioP1;P1;durP2;ratioP2;P2;SDS_P1;SDS_P2;PMS_P1;PMS_P2;Temp;Humidity;BMP_temperature;BMP_pressure;BME280_temperature;BME280_humidity;BME280_pressure;Samples;Min_cycle;Max_cycle;Signal;HPM_P1;HPM_P2
2023/03/03 00:00:21;;;;;;;;;;;;;;;1.73;76.67;98511.78;7386667;19;19922;-78
2023/03/03 00:02:47;;;;;;;;;;;;;;;1.73;76.64;98514.41;7387874;19;19910;-78
2023/03/03 00:05:15;;;;;;;;;;;;;;;1.75;76.91;98520.38;7381802;19;19933;-77
2023/03/03 00:07:43;;;;;;;;;;;;;;;1.72;76.78;98517.97;7383204;19;19942;-78
2023/03/03 00:10:09;;;;;;;;;;;;;;;1.69;77.08;98518.16;7385334;19;19914;-77
2023/03/03 00:12:44;;;;;;;;;;;;;;;1.70;77.07;98519.81;7390075;19;19922;-77
2023/03/03 00:15:15;;;;;;;;;;;;;;;1.63;77.01;98516.75;7382747;19;20392;-78
2023/03/03 00:17:42;;;;;;;;;;;;;;;1.57;77.07;98519.75;7389090;19;20335;-77
2023/03/03 00:20:27;;;;;;;;;;;;;;;1.52;77.08;98516.59;7384049;19;19914;-77
2023/03/03 00:22:54;;;;;;;;;;;;;;;1.46;77.29;98520.41;7388755;19;19922;-77
2023/03/03 00:25:27;;;;;;;;;;;;;;;1.46;77.09;98517.81;7385751;19;19926;-77
2023/03/03 00:27:54;;;;;;;;;;;;;;;1.43;77.25;98522.38;7389219;19;19914;-77
2023/03/03 00:30:25;;;;;;;;;;;;;;;1.42;77.05;98518.94;7376076;19;19926;-77
2023/03/03 00:32:52;;;;;;;;;;;;;;;1.38;77.05;98524.44;7383443;19;19926;-77
2023/03/03 00:35:26;;;;;;;;;;;;;;;1.35;77.04;98524.63;7373238;19;19921;-77
2023/03/03 00:37:54;;;;;;;;;;;;;;;1.34;76.98;98515.13;7385602;19;19926;-77
2023/03/03 00:40:39;;;;;;;;;;;;;;;1.30;77.12;98524.91;7380330;19;19918;-78
2023/03/03 00:43:21;;;;;;;;;;;;;;;1.29;77.39;98526.69;7376912;19;19922;-77
2023/03/03 00:45:51;;;;;;;;;;;;;;;1.26;77.40;98524.25;7377287;19;19922;-78
2023/03/03 00:48:28;;;;;;;;;;;;;;;1.25;77.34;98517.34;7377561;19;19978;-77
2023/03/03 00:50:55;;;;;;;;;;;;;;;1.23;77.60;98518.38;7383577;19;19932;-77
2023/03/03 00:53:22;;;;;;;;;;;;;;;1.20;77.63;98522.00;7379316;19;22873;-78
2023/03/03 00:55:49;;;;;;;;;;;;;;;1.18;77.54;98523.88;7383032;19;19926;-77
2023/03/03 00:58:17;;;;;;;;;;;;;;;1.18;77.70;98516.03;7382463;19;19922;-78
2023/03/03 01:00:45;;;;;;;;;;;;;;;1.18;77.84;98515.22;7373620;19;19918;-78
2023/03/03 01:03:16;;;;;;;;;;;;;;;1.16;77.81;98512.72;7377169;19;19949;-79
2023/03/03 01:05:43;;;;;;;;;;;;;;;1.15;77.80;98516.25;7380058;19;19915;-78
2023/03/03 01:08:09;;;;;;;;;;;;;;;1.14;77.90;98506.75;7374107;19;20275;-78
2023/03/03 01:10:37;;;;;;;;;;;;;;;1.11;78.00;98506.94;7376140;19;20273;-77
2023/03/03 01:13:04;;;;;;;;;;;;;;;1.11;77.85;98501.75;7382500;19;19922;-78
2023/03/03 01:15:31;;;;;;;;;;;;;;;1.09;78.11;98509.63;7376453;19;19948;-78
2023/03/03 01:17:57;;;;;;;;;;;;;;;1.08;78.19;98512.34;7385773;19;19918;-78
2023/03/03 01:20:24;;;;;;;;;;;;;;;1.06;78.26;98512.44;7382147;19;19926;-78
2023/03/03 01:22:50;;;;;;;;;;;;;;;1.10;78.26;98515.69;7385981;19;20580;-77
2023/03/03 01:25:17;;;;;;;;;;;;;;;1.07;78.60;98513.25;7376334;19;19946;-78
2023/03/03 01:27:43;;;;;;;;;;;;;;;1.04;78.73;98514.28;7382949;19;19918;-77
2023/03/03 01:30:11;;;;;;;;;;;;;;;1.04;78.67;98523.88;7384820;19;19915;-77
2023/03/03 01:32:37;;;;;;;;;;;;;;;1.01;78.69;98521.47;7381718;19;19911;-78
2023/03/03 01:35:04;;;;;;;;;;;;;;;0.98;79.21;98517.28;7378083;19;20111;-78
2023/03/03 01:37:31;;;;;;;;;;;;;;;0.94;79.29;98514.94;7386849;19;19931;-78
2023/03/03 01:39:57;;;;;;;;;;;;;;;0.96;79.33;98519.13;7384742;19;19942;-78
2023/03/03 01:42:27;;;;;;;;;;;;;;;0.94;79.53;98514.94;7377200;19;19919;-77
2023/03/03 01:45:23;;;;;;;;;;;;;;;1.03;79.39;98514.41;7379135;19;19964;-77
2023/03/03 01:47:51;;;;;;;;;;;;;;;1.04;79.14;98510.84;7386001;19;20409;-77
2023/03/03 01:50:29;;;;;;;;;;;;;;;1.02;79.30;98523.13;7377054;19;20393;-77
2023/03/03 01:52:56;;;;;;;;;;;;;;;0.98;79.04;98512.06;7379560;19;20375;-77
2023/03/03 01:55:25;;;;;;;;;;;;;;;0.99;79.26;98515.50;7373853;19;20609;-78
2023/03/03 01:58:02;;;;;;;;;;;;;;;0.98;79.21;98509.47;7384554;19;19930;-77
2023/03/03 02:00:29;;;;;;;;;;;;;;;0.95;79.29;98494.00;7375960;19;19919;-78
2023/03/03 02:02:55;;;;;;;;;;;;;;;0.88;79.26;98497.91;7387253;19;19922;-79
2023/03/03 02:05:22;;;;;;;;;;;;;;;0.60;79.41;98489.13;7383257;19;19942;-79
2023/03/03 02:07:49;;;;;;;;;;;;;;;0.60;79.52;98491.72;7387615;19;20395;-79
2023/03/03 02:10:16;;;;;;;;;;;;;;;0.58;79.65;98484.94;7383919;19;19917;-79
2023/03/03 02:12:43;;;;;;;;;;;;;;;0.59;79.67;98489.22;7386882;19;19932;-79
2023/03/03 02:15:19;;;;;;;;;;;;;;;0.57;79.99;98496.28;7380579;19;19918;-79
2023/03/03 02:17:46;;;;;;;;;;;;;;;0.56;79.82;98494.63;7395241;19;19914;-78
2023/03/03 02:20:38;;;;;;;;;;;;;;;0.59;79.70;98489.22;7394003;19;19915;-79
2023/03/03 02:23:18;;;;;;;;;;;;;;;0.58;79.64;98497.94;7392284;19;19922;-79
2023/03/03 02:25:55;;;;;;;;;;;;;;;0.63;79.60;98490.72;7397917;19;19923;-79
2023/03/03 02:28:27;;;;;;;;;;;;;;;0.63;79.50;98493.31;7395703;19;23158;-79
2023/03/03 02:30:54;;;;;;;;;;;;;;;0.61;79.12;98488.22;7402636;19;19926;-79
2023/03/03 02:33:22;;;;;;;;;;;;;;;0.61;79.06;98489.97;7399060;19;19914;-79
2023/03/03 02:35:49;;;;;;;;;;;;;;;0.59;78.95;98486.63;7407066;19;19922;-79
2023/03/03 02:38:22;;;;;;;;;;;;;;;0.58;78.71;98497.94;7401128;19;19946;-79
2023/03/03 02:40:52;;;;;;;;;;;;;;;0.57;78.79;98496.28;7403221;19;19942;-79
2023/03/03 02:43:19;;;;;;;;;;;;;;;0.55;78.66;98498.97;7397757;19;19922;-79
2023/03/03 02:45:46;;;;;;;;;;;;;;;0.55;78.64;98487.72;7393939;19;19962;-79
2023/03/03 02:48:13;;;;;;;;;;;;;;;0.54;78.66;98491.25;7396738;19;20102;-79
2023/03/03 02:50:39;;;;;;;;;;;;;;;0.54;78.72;98497.31;7397107;19;20537;-79
2023/03/03 02:53:06;;;;;;;;;;;;;;;0.51;78.75;98502.69;7400742;19;19918;-79
2023/03/03 02:55:33;;;;;;;;;;;;;;;0.53;78.69;98505.22;7399773;19;19950;-79
2023/03/03 02:58:00;;;;;;;;;;;;;;;0.56;78.93;98513.69;7402152;19;19922;-79
2023/03/03 03:00:26;;;;;;;;;;;;;;;0.58;79.04;98498.81;7397665;19;19926;-79
2023/03/03 03:02:53;;;;;;;;;;;;;;;0.63;79.14;98501.97;7400483;19;19997;-79
2023/03/03 03:05:21;;;;;;;;;;;;;;;0.67;79.46;98500.03;7392632;19;19922;-79
2023/03/03 03:07:47;;;;;;;;;;;;;;;0.74;79.63;98503.09;7401908;19;19915;-79
2023/03/03 03:10:14;;;;;;;;;;;;;;;0.80;79.65;98494.94;7397546;19;20255;-79
2023/03/03 03:12:40;;;;;;;;;;;;;;;0.83;79.60;98502.56;7401418;19;19923;-79
2023/03/03 03:15:09;;;;;;;;;;;;;;;0.83;79.66;98503.38;7397615;19;19921;-79
2023/03/03 03:17:37;;;;;;;;;;;;;;;0.84;79.72;98494.66;7404487;19;19922;-79
2023/03/03 03:20:04;;;;;;;;;;;;;;;0.87;79.58;98499.69;7399738;19;19925;-79
2023/03/03 03:22:31;;;;;;;;;;;;;;;0.87;79.61;98494.47;7394004;19;19923;-79
2023/03/03 03:24:58;;;;;;;;;;;;;;;0.88;79.57;98501.34;7395360;19;19970;-79
2023/03/03 03:27:25;;;;;;;;;;;;;;;0.81;79.53;98505.25;7394893;19;20321;-79
2023/03/03 03:29:51;;;;;;;;;;;;;;;0.79;79.66;98501.03;7398522;19;20328;-79
2023/03/03 03:32:19;;;;;;;;;;;;;;;0.78;79.69;98510.63;7398397;19;20336;-79
2023/03/03 03:34:45;;;;;;;;;;;;;;;0.82;79.81;98506.94;7399814;19;19942;-79
2023/03/03 03:37:13;;;;;;;;;;;;;;;0.85;79.67;98501.53;7395564;19;19945;-79
2023/03/03 03:39:41;;;;;;;;;;;;;;;0.85;79.75;98504.13;7394758;19;19919;-79
2023/03/03 03:42:08;;;;;;;;;;;;;;;0.84;79.72;98502.47;7397234;19;20474;-80
2023/03/03 03:44:34;;;;;;;;;;;;;;;0.82;79.57;98506.94;7394003;19;19911;-79
2023/03/03 03:47:02;;;;;;;;;;;;;;;0.79;79.20;98512.31;7399689;19;19926;-79
2023/03/03 03:49:29;;;;;;;;;;;;;;;0.76;79.15;98507.28;7389741;19;19942;-80
2023/03/03 03:51:56;;;;;;;;;;;;;;;0.75;79.28;98513.44;7399176;19;19930;-79
2023/03/03 03:54:26;;;;;;;;;;;;;;;0.75;79.30;98500.41;7383193;19;19919;-79
2023/03/03 03:56:53;;;;;;;;;;;;;;;0.75;79.75;98505.63;7393663;19;19926;-79
2023/03/03 03:59:21;;;;;;;;;;;;;;;0.68;80.17;98499.09;7394060;19;20272;-79
2023/03/03 04:01:48;;;;;;;;;;;;;;;0.76;80.33;98503.84;7393532;19;20541;-79
2023/03/03 04:04:16;;;;;;;;;;;;;;;0.83;80.66;98499.94;7391661;19;19922;-79
2023/03/03 04:06:42;;;;;;;;;;;;;;;0.96;80.83;98498.28;7398868;19;19922;-79
2023/03/03 04:09:10;;;;;;;;;;;;;;;1.09;80.92;98503.59;7396873;19;19922;-79
2023/03/03 04:11:37;;;;;;;;;;;;;;;1.15;80.83;98504.97;7397052;19;19929;-80
2023/03/03 04:14:05;;;;;;;;;;;;;;;1.24;80.77;98501.84;7394727;19;19951;-80
2023/03/03 04:16:33;;;;;;;;;;;;;;;1.30;80.83;98502.28;7391315;19;19937;-79
2023/03/03 04:19:00;;;;;;;;;;;;;;;1.41;81.00;98504.22;7399447;19;19946;-80
2023/03/03 04:21:26;;;;;;;;;;;;;;;1.44;80.73;98505.81;7390616;19;19930;-79
2023/03/03 04:23:55;;;;;;;;;;;;;;;1.46;80.42;98507.38;7398232;19;19919;-79
2023/03/03 04:26:25;;;;;;;;;;;;;;;1.54;80.61;98509.50;7388836;19;19925;-79
2023/03/03 04:28:52;;;;;;;;;;;;;;;1.59;80.43;98511.84;7393852;19;19911;-79
2023/03/03 04:31:20;;;;;;;;;;;;;;;1.60;80.02;98511.72;7393951;19;20356;-77
2023/03/03 04:33:47;;;;;;;;;;;;;;;1.64;80.21;98515.84;7395743;19;19918;-79
2023/03/03 04:36:13;;;;;;;;;;;;;;;1.56;79.34;98523.28;7387739;19;20350;-80
2023/03/03 04:38:40;;;;;;;;;;;;;;;1.50;79.48;98519.31;7391387;19;19918;-80
2023/03/03 04:41:06;;;;;;;;;;;;;;;1.54;79.22;98520.78;7401341;19;19922;-79
2023/03/03 04:43:36;;;;;;;;;;;;;;;1.54;78.98;98528.59;7396029;19;20309;-79
2023/03/03 04:46:03;;;;;;;;;;;;;;;1.57;79.02;98527.56;7396671;19;20582;-78
2023/03/03 04:48:30;;;;;;;;;;;;;;;1.64;79.07;98531.47;7394158;19;19922;-79
2023/03/03 04:50:57;;;;;;;;;;;;;;;1.71;79.48;98531.91;7402103;19;19910;-79
2023/03/03 04:53:25;;;;;;;;;;;;;;;1.74;79.04;98539.56;7396956;19;19919;-79
2023/03/03 04:55:52;;;;;;;;;;;;;;;1.80;79.22;98535.75;7403701;19;19978;-78
2023/03/03 04:58:20;;;;;;;;;;;;;;;1.86;79.51;98543.16;7395698;19;19941;-78
2023/03/03 05:00:47;;;;;;;;;;;;;;;1.90;79.53;98535.06;7400126;19;19958;-80
2023/03/03 05:03:13;;;;;;;;;;;;;;;1.97;79.38;98543.31;7399042;19;19925;-80
2023/03/03 05:05:41;;;;;;;;;;;;;;;1.96;79.29;98536.44;7400506;19;20366;-79
2023/03/03 05:08:07;;;;;;;;;;;;;;;2.00;79.06;98532.69;7407467;19;19941;-79
2023/03/03 05:10:34;;;;;;;;;;;;;;;2.03;78.88;98535.13;7406252;19;19929;-80
2023/03/03 05:13:00;;;;;;;;;;;;;;;2.05;78.86;98535.84;7407176;19;19926;-79
2023/03/03 05:15:27;;;;;;;;;;;;;;;2.09;78.86;98531.28;7404865;19;19937;-79
2023/03/03 05:17:55;;;;;;;;;;;;;;;2.11;78.46;98532.84;7403287;19;19942;-80
2023/03/03 05:20:22;;;;;;;;;;;;;;;1.96;78.06;98537.25;7404293;19;19926;-77
2023/03/03 05:22:48;;;;;;;;;;;;;;;1.89;78.00;98535.13;7406969;19;19922;-79
2023/03/03 05:25:15;;;;;;;;;;;;;;;1.89;78.10;98535.13;7403909;19;19941;-80
2023/03/03 05:27:42;;;;;;;;;;;;;;;1.91;77.87;98541.09;7405040;19;19966;-79
2023/03/03 05:30:09;;;;;;;;;;;;;;;1.85;78.06;98538.91;7405182;19;19919;-79
2023/03/03 05:32:36;;;;;;;;;;;;;;;1.86;77.88;98541.38;7402885;19;19926;-79
2023/03/03 05:35:03;;;;;;;;;;;;;;;1.87;77.86;98547.44;7402298;19;19946;-79
2023/03/03 05:37:30;;;;;;;;;;;;;;;1.84;77.90;98550.25;7402766;19;19934;-79
2023/03/03 05:39:56;;;;;;;;;;;;;;;1.84;77.99;98553.69;7406281;19;19957;-78
2023/03/03 05:42:23;;;;;;;;;;;;;;;1.83;78.02;98557.25;7403116;19;19946;-79
2023/03/03 05:44:49;;;;;;;;;;;;;;;1.88;78.17;98555.19;7397897;19;20367;-70
2023/03/03 05:47:16;;;;;;;;;;;;;;;1.94;78.08;98557.41;7379639;19;20330;-70
2023/03/03 05:49:42;;;;;;;;;;;;;;;1.99;78.12;98559.72;7381215;19;20282;-70
2023/03/03 05:52:09;;;;;;;;;;;;;;;1.98;77.80;98558.88;7384503;19;20584;-70
2023/03/03 05:54:35;;;;;;;;;;;;;;;1.98;77.86;98563.28;7380508;19;19926;-70
2023/03/03 05:57:02;;;;;;;;;;;;;;;1.95;77.76;98568.69;7392258;19;19933;-70
2023/03/03 05:59:29;;;;;;;;;;;;;;;1.95;77.52;98568.69;7386327;19;19919;-71
2023/03/03 06:01:55;;;;;;;;;;;;;;;1.84;77.50;98568.50;7391079;19;20308;-71
2023/03/03 06:04:22;;;;;;;;;;;;;;;1.83;77.45;98570.28;7385954;19;19989;-71
2023/03/03 06:06:48;;;;;;;;;;;;;;;1.84;77.33;98571.13;7388339;19;20695;-71
2023/03/03 06:09:17;;;;;;;;;;;;;;;1.88;77.60;98572.63;7385057;19;19915;-70
2023/03/03 06:11:44;;;;;;;;;;;;;;;1.91;77.54;98570.63;7388347;19;19918;-71
2023/03/03 06:14:11;;;;;;;;;;;;;;;1.89;77.27;98576.88;7388132;19;19923;-71
2023/03/03 06:16:38;;;;;;;;;;;;;;;1.91;77.43;98575.84;7389482;19;19915;-71
2023/03/03 06:19:05;;;;;;;;;;;;;;;1.95;77.43;98582.56;7390205;19;19919;-72
2023/03/03 06:21:31;;;;;;;;;;;;;;;1.95;77.35;98574.75;7386686;19;19945;-71
2023/03/03 06:23:58;;;;;;;;;;;;;;;1.96;77.21;98579.00;7386215;19;19922;-71
2023/03/03 06:26:24;;;;;;;;;;;;;;;1.98;77.24;98586.75;7385332;19;20361;-71
2023/03/03 06:28:52;;;;;;;;;;;;;;;1.91;77.05;98591.50;7385745;19;19918;-71
2023/03/03 06:31:19;;;;;;;;;;;;;;;1.94;77.02;98596.53;7387794;19;19918;-71
2023/03/03 06:33:46;;;;;;;;;;;;;;;1.94;77.07;98595.69;7386530;19;20408;-71
2023/03/03 06:36:12;;;;;;;;;;;;;;;2.01;77.10;98597.00;7391448;19;20305;-71
2023/03/03 06:38:39;;;;;;;;;;;;;;;2.08;77.08;98602.66;7384271;19;20254;-71
2023/03/03 06:41:07;;;;;;;;;;;;;;;2.13;77.17;98605.81;7387608;19;19914;-71
2023/03/03 06:43:34;;;;;;;;;;;;;;;2.14;77.01;98602.28;7380449;19;19922;-71
2023/03/03 06:46:00;;;;;;;;;;;;;;;2.15;76.67;98604.78;7391180;19;19922;-71
2023/03/03 06:48:28;;;;;;;;;;;;;;;2.11;77.08;98612.94;7380660;19;19990;-71
2023/03/03 06:50:54;;;;;;;;;;;;;;;1.95;76.92;98605.22;7387044;19;19918;-71
2023/03/03 06:53:21;;;;;;;;;;;;;;;1.85;77.19;98607.56;7383670;19;19914;-71
2023/03/03 06:55:48;;;;;;;;;;;;;;;2.03;76.99;98613.41;7385488;19;19922;-71
2023/03/03 06:58:19;;;;;;;;;;;;;;;2.03;76.97;98613.41;7381362;19;19918;-70
2023/03/03 07:00:49;;;;;;;;;;;;;;;1.91;77.28;98622.00;7381268;19;20895;-71
2023/03/03 07:03:17;;;;;;;;;;;;;;;2.05;77.08;98613.28;7384734;19;19957;-71
2023/03/03 07:05:44;;;;;;;;;;;;;;;2.00;76.78;98617.97;7382957;19;20418;-71
2023/03/03 07:08:17;;;;;;;;;;;;;;;1.98;76.94;98625.91;7382406;19;19932;-71
2023/03/03 07:10:44;;;;;;;;;;;;;;;2.11;76.61;98629.41;7382966;19;19963;-71
2023/03/03 07:13:21;;;;;;;;;;;;;;;2.11;76.73;98629.41;7388389;19;20258;-71
2023/03/03 07:15:48;;;;;;;;;;;;;;;2.16;76.81;98631.75;7382086;19;19938;-71
2023/03/03 07:21:36;;;;;;;;;;;;;;;2.20;76.29;98623.59;7381676;19;19921;-71
2023/03/03 07:24:17;;;;;;;;;;;;;;;2.23;76.14;98630.41;7381940;19;19929;-71
2023/03/03 07:26:44;;;;;;;;;;;;;;;2.19;75.77;98635.00;7377810;19;19947;-71
2023/03/03 07:29:25;;;;;;;;;;;;;;;2.49;75.58;98635.75;7383340;19;20274;-71
2023/03/03 07:31:52;;;;;;;;;;;;;;;2.58;75.10;98638.59;7380276;19;20430;-71
2023/03/03 07:34:22;;;;;;;;;;;;;;;2.54;74.32;98639.72;7380260;19;20323;-71
2023/03/03 07:36:49;;;;;;;;;;;;;;;2.58;75.01;98643.84;7384381;19;19922;-71
2023/03/03 07:39:35;;;;;;;;;;;;;;;2.64;74.52;98632.97;7387767;19;19923;-71
2023/03/03 07:42:13;;;;;;;;;;;;;;;2.62;73.98;98639.25;7389167;19;19923;-70
2023/03/03 07:44:39;;;;;;;;;;;;;;;2.82;73.97;98635.34;7378724;19;19946;-71
2023/03/03 07:47:14;;;;;;;;;;;;;;;2.94;73.81;98638.91;7389265;19;19949;-71
2023/03/03 07:49:42;;;;;;;;;;;;;;;2.69;73.61;98643.13;7376038;19;20492;-71
2023/03/03 07:52:27;;;;;;;;;;;;;;;2.76;73.36;98649.63;7385046;19;19923;-71
2023/03/03 07:54:58;;;;;;;;;;;;;;;2.71;74.10;98653.47;7385492;19;19941;-71
2023/03/03 07:57:26;;;;;;;;;;;;;;;2.58;74.30;98653.41;7384803;19;19991;-71
2023/03/03 07:59:54;;;;;;;;;;;;;;;2.79;74.11;98661.63;7386276;19;19946;-71
2023/03/03 08:02:33;;;;;;;;;;;;;;;2.84;74.02;98664.78;7388147;19;19923;-71
2023/03/03 08:04:59;;;;;;;;;;;;;;;2.94;73.37;98670.28;7378746;19;20318;-71
2023/03/03 08:07:30;;;;;;;;;;;;;;;3.06;73.36;98662.47;7381373;19;19927;-71
2023/03/03 08:09:57;;;;;;;;;;;;;;;3.07;73.05;98664.13;7384880;19;20757;-71
2023/03/03 08:12:28;;;;;;;;;;;;;;;3.08;72.94;98671.06;7385227;19;19946;-71
2023/03/03 08:14:54;;;;;;;;;;;;;;;3.23;72.77;98665.72;7378914;19;19914;-71
2023/03/03 08:17:34;;;;;;;;;;;;;;;3.18;72.74;98662.59;7389101;19;20326;-72
2023/03/03 08:20:00;;;;;;;;;;;;;;;3.48;73.18;98663.16;7383286;19;19930;-71
2023/03/03 08:22:29;;;;;;;;;;;;;;;3.36;71.83;98658.72;7381032;19;19953;-71
2023/03/03 08:24:55;;;;;;;;;;;;;;;3.35;71.62;98653.63;7379752;19;19927;-71
2023/03/03 08:27:22;;;;;;;;;;;;;;;3.52;71.20;98659.38;7389693;19;19918;-71
2023/03/03 08:29:49;;;;;;;;;;;;;;;3.48;71.61;98667.53;7384650;19;19926;-71
2023/03/03 08:32:15;;;;;;;;;;;;;;;3.59;70.64;98651.13;7388323;19;19923;-71
2023/03/03 08:34:42;;;;;;;;;;;;;;;3.97;70.47;98664.16;7379882;19;19942;-71
2023/03/03 08:37:08;;;;;;;;;;;;;;;4.31;69.77;98651.31;7385914;19;19926;-71
2023/03/03 08:39:35;;;;;;;;;;;;;;;4.47;68.10;98659.72;7381920;19;20279;-71
2023/03/03 08:42:02;;;;;;;;;;;;;;;4.68;67.79;98653.91;7380446;19;19911;-71
2023/03/03 08:44:28;;;;;;;;;;;;;;;4.97;66.77;98659.63;7382201;19;19926;-71
2023/03/03 08:46:55;;;;;;;;;;;;;;;4.93;66.32;98663.44;7386689;19;19919;-71
2023/03/03 08:49:22;;;;;;;;;;;;;;;5.27;66.75;98664.38;7385933;19;19926;-71
2023/03/03 08:51:48;;;;;;;;;;;;;;;5.31;65.27;98663.19;7379114;19;20347;-71
2023/03/03 08:54:16;;;;;;;;;;;;;;;5.16;64.69;98670.44;7384043;19;19919;-71
2023/03/03 08:56:43;;;;;;;;;;;;;;;5.39;65.69;98678.34;7378603;19;19938;-71
2023/03/03 08:59:10;;;;;;;;;;;;;;;5.19;64.81;98682.50;7386260;19;19925;-71
2023/03/03 09:01:36;;;;;;;;;;;;;;;5.39;65.84;98675.72;7383709;19;20258;-71
2023/03/03 09:04:03;;;;;;;;;;;;;;;5.35;65.96;98679.56;7385842;19;20266;-71
2023/03/03 09:06:29;;;;;;;;;;;;;;;5.14;65.75;98684.63;7383401;19;19915;-72
2023/03/03 09:08:56;;;;;;;;;;;;;;;4.91;65.54;98684.50;7384922;19;20343;-71
2023/03/03 09:11:25;;;;;;;;;;;;;;;4.94;66.39;98689.53;7385887;19;19922;-71
2023/03/03 09:13:53;;;;;;;;;;;;;;;4.79;66.72;98691.50;7380196;19;19930;-69
2023/03/03 09:16:21;;;;;;;;;;;;;;;4.86;67.30;98701.53;7384929;19;22406;-71
2023/03/03 09:18:47;;;;;;;;;;;;;;;4.76;67.88;98696.94;7377894;19;19915;-71
2023/03/03 09:21:21;;;;;;;;;;;;;;;4.85;67.16;98698.06;7384440;19;19923;-71
2023/03/03 09:23:49;;;;;;;;;;;;;;;4.89;67.37;98698.69;7379983;19;20026;-71
2023/03/03 09:26:18;;;;;;;;;;;;;;;5.10;66.57;98701.50;7385224;19;19922;-71
2023/03/03 09:28:45;;;;;;;;;;;;;;;5.14;66.59;98705.59;7371261;19;19921;-71
2023/03/03 09:31:23;;;;;;;;;;;;;;;5.35;66.08;98692.69;7379786;19;19942;-71
2023/03/03 09:33:50;;;;;;;;;;;;;;;5.44;65.23;98698.03;7378957;19;20023;-72
2023/03/03 09:36:19;;;;;;;;;;;;;;;5.73;65.70;98695.84;7385134;19;19922;-71
2023/03/03 09:38:46;;;;;;;;;;;;;;;5.99;65.10;98697.47;7380321;19;19931;-71
2023/03/03 09:41:19;;;;;;;;;;;;;;;6.38;64.60;98698.75;7384958;19;19923;-72
2023/03/03 09:43:54;;;;;;;;;;;;;;;6.48;62.65;98698.88;7376609;19;19918;-72
2023/03/03 09:46:30;;;;;;;;;;;;;;;6.62;62.37;98690.72;7382400;19;19922;-71
2023/03/03 09:49:22;;;;;;;;;;;;;;;6.59;62.41;98690.97;7382489;19;19922;-71
2023/03/03 09:51:54;;;;;;;;;;;;;;;6.97;62.62;98694.91;7378206;19;20287;-71
2023/03/03 09:54:25;;;;;;;;;;;;;;;7.17;61.08;98695.91;7383568;19;20474;-71
2023/03/03 09:57:12;;;;;;;;;;;;;;;7.03;60.96;98692.63;7378992;19;19938;-71
2023/03/03 09:59:51;;;;;;;;;;;;;;;6.79;61.46;98697.22;7377822;19;19958;-70
2023/03/03 10:02:24;;;;;;;;;;;;;;;7.12;60.03;98696.28;7382602;19;20558;-71
2023/03/03 10:04:53;;;;;;;;;;;;;;;7.32;60.02;98694.66;7375178;19;19953;-71
2023/03/03 10:07:25;;;;;;;;;;;;;;;7.54;59.10;98698.97;7384022;19;19954;-72
2023/03/03 10:09:52;;;;;;;;;;;;;;;7.60;58.38;98694.97;7375490;19;19914;-71
2023/03/03 10:12:23;;;;;;;;;;;;;;;7.67;59.08;98694.31;7385121;19;20281;-71
2023/03/03 10:14:56;;;;;;;;;;;;;;;7.78;58.65;98696.06;7375519;19;19922;-70
2023/03/03 10:17:30;;;;;;;;;;;;;;;7.93;59.10;98695.72;7383354;19;19922;-70
2023/03/03 10:19:56;;;;;;;;;;;;;;;8.01;58.40;98694.09;7375185;19;20370;-71
2023/03/03 10:22:34;;;;;;;;;;;;;;;7.72;58.19;98696.59;7382292;19;19922;-71
2023/03/03 10:25:23;;;;;;;;;;;;;;;7.23;59.61;98701.50;7378283;19;20323;-70
2023/03/03 10:27:53;;;;;;;;;;;;;;;7.13;60.03;98703.22;7376836;19;19926;-71
2023/03/03 10:30:27;;;;;;;;;;;;;;;6.99;60.71;98693.81;7384927;19;19918;-70
2023/03/03 10:33:11;;;;;;;;;;;;;;;7.14;59.72;98697.00;7384055;19;19919;-71
2023/03/03 10:35:47;;;;;;;;;;;;;;;7.54;59.68;98693.69;7371677;19;19918;-70
2023/03/03 10:38:40;;;;;;;;;;;;;;;7.46;59.25;98693.50;7380961;19;19934;-70
2023/03/03 10:41:10;;;;;;;;;;;;;;;7.25;57.68;98691.69;7387265;19;19919;-70
2023/03/03 10:43:56;;;;;;;;;;;;;;;7.64;57.94;98694.59;7383694;19;19917;-70
2023/03/03 10:46:26;;;;;;;;;;;;;;;7.81;57.88;98687.88;7390015;19;19925;-70
2023/03/03 10:48:55;;;;;;;;;;;;;;;7.91;56.58;98699.31;7379126;19;19914;-71
2023/03/03 10:51:25;;;;;;;;;;;;;;;7.96;56.21;98691.03;7380536;19;19922;-70
2023/03/03 10:53:58;;;;;;;;;;;;;;;8.05;56.24;98686.75;7376693;19;19929;-70
2023/03/03 10:56:34;;;;;;;;;;;;;;;8.09;55.65;98689.00;7385908;19;19922;-70
2023/03/03 10:59:31;;;;;;;;;;;;;;;8.20;55.72;98690.72;7387902;19;19929;-70
2023/03/03 11:02:21;;;;;;;;;;;;;;;8.23;55.29;98679.06;7382506;19;19941;-70
2023/03/03 11:05:01;;;;;;;;;;;;;;;8.56;54.50;98689.34;7378144;19;19922;-70
2023/03/03 11:07:30;;;;;;;;;;;;;;;8.35;54.35;98689.38;7387469;19;19925;-70
2023/03/03 11:10:02;;;;;;;;;;;;;;;8.38;53.91;98690.09;7382777;19;19910;-70
2023/03/03 11:12:46;;;;;;;;;;;;;;;8.34;53.70;98692.97;7387668;19;19919;-70
2023/03/03 11:15:18;;;;;;;;;;;;;;;8.46;53.01;98695.56;7378696;19;19943;-70
2023/03/03 11:17:57;;;;;;;;;;;;;;;8.40;53.35;98698.69;7374158;19;19922;-70
2023/03/03 11:20:34;;;;;;;;;;;;;;;8.20;53.59;98703.06;7382421;19;19922;-70
2023/03/03 11:23:05;;;;;;;;;;;;;;;8.14;53.44;98699.16;7381829;19;19939;-70
2023/03/03 11:25:41;;;;;;;;;;;;;;;8.08;53.06;98702.28;7375151;19;20267;-70
2023/03/03 11:28:11;;;;;;;;;;;;;;;8.36;52.79;98696.31;7378762;19;19954;-70
2023/03/03 11:30:49;;;;;;;;;;;;;;;8.35;51.65;98696.47;7382566;19;19953;-69
2023/03/03 11:33:19;;;;;;;;;;;;;;;8.20;52.29;98701.25;7386717;19;20366;-70
2023/03/03 11:36:04;;;;;;;;;;;;;;;8.33;52.67;98691.31;7382359;19;19915;-70
2023/03/03 11:38:33;;;;;;;;;;;;;;;8.77;52.50;98694.50;7388115;19;20351;-70
2023/03/03 11:41:02;;;;;;;;;;;;;;;8.40;51.36;98685.53;7383397;19;19922;-71
2023/03/03 11:43:31;;;;;;;;;;;;;;;8.59;52.22;98690.88;7381597;19;20553;-70
2023/03/03 11:46:04;;;;;;;;;;;;;;;8.55;52.07;98689.47;7384226;19;19922;-70
2023/03/03 11:48:34;;;;;;;;;;;;;;;8.49;52.07;98682.09;7382986;19;19925;-70
2023/03/03 11:51:19;;;;;;;;;;;;;;;8.77;51.81;98683.13;7385370;19;19957;-70
2023/03/03 11:53:46;;;;;;;;;;;;;;;8.31;52.71;98672.16;7378746;19;21030;-70
2023/03/03 11:56:21;;;;;;;;;;;;;;;8.46;52.31;98675.28;7389236;19;20042;-70
2023/03/03 11:58:50;;;;;;;;;;;;;;;8.40;51.96;98664.44;7377425;19;19946;-69
2023/03/03 12:01:17;;;;;;;;;;;;;;;8.89;52.10;98674.09;7382442;19;19939;-70
2023/03/03 12:03:53;;;;;;;;;;;;;;;8.97;50.38;98668.97;7384637;19;19945;-70
2023/03/03 12:06:39;;;;;;;;;;;;;;;9.15;50.34;98666.47;7386192;19;20485;-70
2023/03/03 12:09:24;;;;;;;;;;;;;;;8.97;50.97;98654.94;7386948;19;19915;-70
2023/03/03 12:11:56;;;;;;;;;;;;;;;9.20;50.19;98648.41;7381529;19;19918;-71
2023/03/03 12:14:34;;;;;;;;;;;;;;;9.93;49.51;98652.31;7378670;19;20316;-72
2023/03/03 12:17:20;;;;;;;;;;;;;;;10.36;47.93;98648.22;7384702;19;19941;-70
2023/03/03 12:19:53;;;;;;;;;;;;;;;10.44;46.72;98641.22;7382547;19;19986;-72
2023/03/03 12:22:28;;;;;;;;;;;;;;;11.15;48.04;98644.88;7389048;19;19926;-72
2023/03/03 12:25:13;;;;;;;;;;;;;;;11.40;44.95;98637.94;7379781;19;19918;-71
2023/03/03 12:27:40;;;;;;;;;;;;;;;11.96;44.12;98630.56;7386026;19;20360;-71
2023/03/03 12:30:09;;;;;;;;;;;;;;;11.97;44.09;98633.03;7385176;19;19918;-71
2023/03/03 12:33:11;;;;;;;;;;;;;;;12.19;44.29;98630.81;7378597;19;19927;-71
2023/03/03 12:35:42;;;;;;;;;;;;;;;11.92;43.57;98634.50;7371669;19;19922;-72
2023/03/03 12:38:08;;;;;;;;;;;;;;;11.68;43.33;98628.03;7381617;19;19918;-71
2023/03/03 12:40:39;;;;;;;;;;;;;;;11.25;44.46;98628.94;7384026;19;20349;-71
2023/03/03 12:43:24;;;;;;;;;;;;;;;11.36;43.99;98629.50;7384577;19;19989;-71
2023/03/03 12:45:54;;;;;;;;;;;;;;;11.10;44.57;98626.81;7381106;19;19918;-71
2023/03/03 12:48:23;;;;;;;;;;;;;;;11.02;45.30;98621.44;7386372;19;19982;-72
2023/03/03 12:50:59;;;;;;;;;;;;;;;10.44;45.36;98625.34;7381334;19;19919;-71
2023/03/03 12:53:32;;;;;;;;;;;;;;;10.13;45.12;98622.13;7384004;19;19923;-71
2023/03/03 12:55:59;;;;;;;;;;;;;;;10.04;46.48;98621.22;7386518;19;20023;-71
2023/03/03 12:58:45;;;;;;;;;;;;;;;10.03;47.54;98621.34;7389258;19;19948;-71
2023/03/03 13:01:33;;;;;;;;;;;;;;;10.03;46.68;98624.00;7387318;19;19915;-71
2023/03/03 13:04:06;;;;;;;;;;;;;;;10.27;48.04;98616.41;7383383;19;19915;-71
2023/03/03 13:07:05;;;;;;;;;;;;;;;10.03;46.70;98613.41;7385315;19;19969;-71
2023/03/03 13:09:32;;;;;;;;;;;;;;;10.11;47.64;98624.94;7379629;19;19919;-71
2023/03/03 13:12:05;;;;;;;;;;;;;;;10.19;47.16;98620.72;7381354;19;19945;-71
2023/03/03 13:14:47;;;;;;;;;;;;;;;10.31;47.08;98622.22;7382319;19;19926;-71